This is the latest recevied weather packets stored in our database for station/object AI9T. If no packets are shown the sender has not sent any weather packets the latest 10 day(s).
| Time | Temp. | Humidity | Pressure | Rain* | Wind** | Luminosity | Snow |
|---|---|---|---|---|---|---|---|
| 1778287504 | 13.89° C | 93% | 1008.1 hPa | 1.27 mm | - | - | - |
| 1778287204 | 13.89° C | 92% | 1008 hPa | 1.02 mm | - | - | - |
| 1778285704 | 13.89° C | 92% | 1008.2 hPa | 1.02 mm | - | - | - |
| 1778284504 | 13.89° C | 91% | 1008.1 hPa | 0.51 mm | - | - | - |
| 1778281204 | 14.44° C | 88% | 1008.6 hPa | 1.27 mm | - | - | - |
| 1778279104 | 15.56° C | 84% | 1009.1 hPa | 0.25 mm | - | - | - |
| 1778276105 | 16.67° C | 80% | 1008.2 hPa | 0.51 mm | - | - | - |
| 1778275504 | 16.11° C | 80% | 1008.2 hPa | 0.51 mm | - | - | - |
| 1778268605 | 17.78° C | 70% | 1008.9 hPa | 0 mm | - | - | - |
| 1778266805 | 19.44° C | 62% | 1009.3 hPa | 0 mm | - | - | - |
| 1778265004 | 20° C | 55% | 1009.4 hPa | 0 mm | - | - | - |
| 1778258104 | 20° C | 53% | 1011.1 hPa | 0 mm | - | - | - |
| 1778256004 | 19.44° C | 53% | 1011.4 hPa | 0 mm | - | - | - |
| 1778254804 | 18.33° C | 55% | 1011.5 hPa | 0 mm | - | - | - |
| 1778253004 | 17.22° C | 56% | 1011.8 hPa | 0 mm | - | - | - |
| 1778246703 | 13.89° C | 62% | 1012.6 hPa | 0 mm | - | - | - |
| 1778244604 | 12.22° C | 65% | 1012.7 hPa | 0 mm | - | - | - |
| 1778243103 | 12.22° C | 65% | 1012.8 hPa | 0 mm | - | - | - |
| 1778239804 | 10° C | 70% | 1012.6 hPa | 0 mm | - | - | - |
| 1778237704 | 9.44° C | 70% | 1012.6 hPa | 0 mm | - | - | - |
| 1778236504 | 9.44° C | 70% | 1012.5 hPa | 0 mm | - | - | - |
| 1778235604 | 10° C | 69% | 1012.5 hPa | 0 mm | - | - | - |
| 1778235304 | 10° C | 69% | 1012.5 hPa | 0 mm | - | - | - |
| 1778232303 | 10.56° C | 66% | 1012.3 hPa | 0 mm | - | - | - |
| 1778231704 | 10.56° C | 65% | 1012.3 hPa | 0 mm | - | - | - |
* Rain latest hour (hover to see other rain measurements)
** Current wind speed in m/s (hover to see current wind gust speed)